Time;durP1;ratioP1;P1;durP2;ratioP2;P2;SDS_P1;SDS_P2;PMS_P1;PMS_P2;Temp;Humidity;BMP_temperature;BMP_pressure;BME280_temperature;BME280_humidity;BME280_pressure;Samples;Min_cycle;Max_cycle;Signal;HPM_P1;HPM_P2
2023/10/02 00:03:41;;;;;;;4.20;1.60;;;13.00;99.90;;;;;;5038577;28;20033;-64
2023/10/02 00:06:10;;;;;;;3.42;2.13;;;13.00;99.90;;;;;;5036309;28;20041;-69
2023/10/02 00:08:48;;;;;;;4.85;3.00;;;12.90;99.90;;;;;;5036443;28;20544;-63
2023/10/02 00:11:35;;;;;;;4.15;1.63;;;12.90;99.90;;;;;;5034319;28;20061;-64
2023/10/02 00:14:19;;;;;;;6.22;1.90;;;12.90;99.90;;;;;;5036842;28;20041;-64
2023/10/02 00:16:59;;;;;;;6.63;2.45;;;12.90;99.90;;;;;;5038454;28;20091;-63
2023/10/02 00:19:30;;;;;;;10.05;2.40;;;12.90;99.90;;;;;;5037190;28;20406;-62
2023/10/02 00:22:03;;;;;;;5.70;3.03;;;12.80;99.90;;;;;;5040340;28;20112;-65
2023/10/02 00:24:32;;;;;;;4.82;1.70;;;12.80;99.90;;;;;;5041581;28;20041;-67
2023/10/02 00:27:01;;;;;;;4.82;1.88;;;12.70;99.90;;;;;;5034846;28;20041;-65
2023/10/02 00:29:28;;;;;;;3.20;1.63;;;12.70;99.90;;;;;;5037562;28;20033;-60
2023/10/02 00:31:56;;;;;;;3.17;1.70;;;12.70;99.90;;;;;;5033016;28;20046;-66
2023/10/02 00:34:32;;;;;;;4.22;2.25;;;12.60;99.90;;;;;;5037904;28;20108;-61
2023/10/02 00:37:15;;;;;;;6.07;2.15;;;12.60;99.90;;;;;;5029683;28;20490;-62
2023/10/02 00:39:52;;;;;;;5.55;2.25;;;12.60;99.90;;;;;;5034903;28;20128;-64
2023/10/02 00:44:57;;;;;;;5.40;2.67;;;12.50;99.90;;;;;;5037247;28;20084;-63
2023/10/02 00:47:45;;;;;;;4.18;2.17;;;12.60;99.90;;;;;;5037231;28;20433;-71
2023/10/02 00:50:17;;;;;;;5.82;1.92;;;12.50;99.90;;;;;;5040161;28;20097;-64
2023/10/02 00:52:49;;;;;;;6.20;2.63;;;12.50;99.90;;;;;;5035857;28;20529;-61
2023/10/02 00:55:22;;;;;;;7.93;1.90;;;12.50;99.90;;;;;;5071927;28;20375;-63
2023/10/02 00:57:51;;;;;;;8.05;2.05;;;12.50;99.90;;;;;;5034365;28;20057;-61
2023/10/02 01:00:30;;;;;;;9.20;2.22;;;12.50;99.90;;;;;;5038233;28;20111;-71
2023/10/02 01:03:01;;;;;;;6.68;2.80;;;12.40;99.90;;;;;;5050418;28;20045;-61
2023/10/02 01:05:42;;;;;;;3.58;1.73;;;12.40;99.90;;;;;;5032142;28;20517;-69
2023/10/02 01:08:24;;;;;;;4.32;2.40;;;12.40;99.90;;;;;;5034786;28;20037;-66
2023/10/02 01:10:59;;;;;;;5.57;1.60;;;12.30;99.90;;;;;;5030858;28;20081;-60
2023/10/02 01:13:37;;;;;;;6.45;2.00;;;12.20;99.90;;;;;;5038446;28;20067;-62
2023/10/02 01:16:08;;;;;;;5.50;1.50;;;12.10;99.90;;;;;;5038494;28;20046;-62
2023/10/02 01:18:37;;;;;;;;;;;12.00;99.90;;;;;;5031217;28;20124;-63
2023/10/02 01:21:11;;;;;;;2.67;1.77;;;11.90;99.90;;;;;;5043354;28;20480;-60
2023/10/02 01:24:10;;;;;;;4.70;1.88;;;11.80;99.90;;;;;;5040722;28;20068;-60
2023/10/02 01:26:42;;;;;;;5.57;2.47;;;11.70;99.90;;;;;;5035125;28;20140;-62
2023/10/02 01:29:11;;;;;;;4.28;2.10;;;11.60;99.90;;;;;;5037628;28;20078;-66
2023/10/02 01:31:44;;;;;;;3.80;2.47;;;11.50;99.90;;;;;;5040482;28;20049;-61
2023/10/02 01:34:33;;;;;;;3.72;1.80;;;11.50;99.90;;;;;;5037201;28;20053;-64
2023/10/02 01:37:00;;;;;;;5.82;2.35;;;11.40;99.90;;;;;;5034290;28;20041;-61
2023/10/02 01:39:27;;;;;;;8.90;1.67;;;11.30;99.90;;;;;;5049374;28;20081;-63
2023/10/02 01:41:54;;;;;;;5.53;2.38;;;11.20;99.90;;;;;;5032860;28;20072;-60
2023/10/02 01:44:25;;;;;;;4.90;2.83;;;11.10;99.90;;;;;;5040032;28;20119;-60
2023/10/02 01:46:52;;;;;;;6.20;2.17;;;11.00;99.90;;;;;;5032972;28;20049;-62
2023/10/02 01:49:27;;;;;;;5.80;2.03;;;10.90;99.90;;;;;;5036121;28;20138;-63
2023/10/02 01:52:11;;;;;;;2.85;1.73;;;10.80;99.90;;;;;;5034459;28;20053;-62
2023/10/02 01:54:40;;;;;;;2.88;1.92;;;10.80;99.90;;;;;;5033687;28;20052;-63
2023/10/02 01:57:07;;;;;;;4.85;2.55;;;10.70;99.90;;;;;;5034072;28;20051;-67
2023/10/02 01:59:35;;;;;;;5.55;1.95;;;10.70;99.90;;;;;;5041992;28;20391;-65
2023/10/02 02:02:12;;;;;;;6.10;2.15;;;10.70;99.90;;;;;;5037037;28;20054;-66
2023/10/02 02:04:42;;;;;;;5.15;2.22;;;10.70;99.90;;;;;;5041794;28;20048;-62
2023/10/02 02:07:09;;;;;;;3.33;1.73;;;10.70;99.90;;;;;;5036987;28;20463;-63
2023/10/02 02:09:42;;;;;;;3.78;1.80;;;10.70;99.90;;;;;;5033761;28;20517;-62
2023/10/02 02:14:52;;;;;;;4.57;2.33;;;11.00;99.90;;;;;;5030834;28;20046;-64
2023/10/02 02:17:21;;;;;;;9.35;2.53;;;11.20;99.90;;;;;;5041760;28;20045;-61
2023/10/02 02:19:54;;;;;;;3.40;1.75;;;11.40;99.90;;;;;;5032981;28;20041;-62
2023/10/02 02:22:26;;;;;;;5.55;1.65;;;11.50;99.90;;;;;;5034763;28;20363;-68
2023/10/02 02:24:58;;;;;;;11.77;2.15;;;11.60;99.90;;;;;;5034158;28;20103;-61
2023/10/02 02:27:25;;;;;;;5.05;1.77;;;11.70;99.90;;;;;;5029644;28;20048;-61
2023/10/02 02:29:56;;;;;;;10.50;3.47;;;11.80;99.90;;;;;;5030623;28;20126;-65
2023/10/02 02:32:44;;;;;;;4.82;1.90;;;11.80;99.90;;;;;;5030616;28;20134;-62
2023/10/02 02:35:15;;;;;;;6.53;1.80;;;11.80;99.90;;;;;;5046650;28;20053;-60
2023/10/02 02:37:43;;;;;;;4.95;1.70;;;11.80;99.90;;;;;;5035270;28;20410;-60
2023/10/02 02:40:25;;;;;;;5.38;2.58;;;11.80;99.90;;;;;;5033009;28;20735;-62
2023/10/02 02:42:54;;;;;;;4.85;1.60;;;11.80;99.90;;;;;;5035033;28;20415;-63
2023/10/02 02:45:28;;;;;;;3.38;1.70;;;11.80;99.90;;;;;;5032889;28;20091;-64
2023/10/02 02:48:03;;;;;;;5.60;2.53;;;11.80;99.90;;;;;;5034227;28;20094;-61
2023/10/02 02:50:41;;;;;;;5.47;2.30;;;11.70;99.90;;;;;;5037097;28;20124;-62
2023/10/02 02:53:21;;;;;;;5.00;2.08;;;11.60;99.90;;;;;;5032215;28;20044;-64
2023/10/02 02:56:10;;;;;;;5.05;1.83;;;11.50;99.90;;;;;;5031557;28;20072;-64
2023/10/02 02:58:38;;;;;;;7.90;2.00;;;11.30;99.90;;;;;;5036849;28;20115;-63
2023/10/02 03:01:12;;;;;;;5.20;2.47;;;11.20;99.90;;;;;;5032225;28;20435;-63
2023/10/02 03:03:41;;;;;;;6.18;2.85;;;11.10;99.90;;;;;;5035612;28;20152;-61
2023/10/02 03:06:22;;;;;;;5.82;2.22;;;11.00;99.90;;;;;;5033979;28;20045;-66
2023/10/02 03:08:51;;;;;;;;;;;10.90;99.90;;;;;;5034456;28;20395;-60
2023/10/02 03:11:22;;;;;;;3.50;1.75;;;10.80;99.90;;;;;;5033362;28;20023;-62
2023/10/02 03:13:49;;;;;;;3.22;2.15;;;10.70;99.90;;;;;;5036342;28;20040;-60
2023/10/02 03:16:28;;;;;;;4.55;1.60;;;10.60;99.90;;;;;;5031692;28;20374;-61
2023/10/02 03:18:56;;;;;;;2.95;1.80;;;10.50;99.90;;;;;;5031360;28;20519;-63
2023/10/02 03:21:24;;;;;;;2.80;1.40;;;10.50;99.90;;;;;;5035286;28;20116;-62
2023/10/02 03:23:59;;;;;;;3.92;1.98;;;10.40;99.90;;;;;;5036504;28;20836;-61
2023/10/02 03:26:37;;;;;;;5.65;1.70;;;10.30;99.90;;;;;;5035317;28;20041;-66
2023/10/02 03:29:11;;;;;;;2.63;1.70;;;10.30;99.90;;;;;;5031228;28;20050;-62
2023/10/02 03:31:49;;;;;;;2.58;1.40;;;10.30;99.90;;;;;;5031192;28;20046;-65
2023/10/02 03:37:13;;;;;;;5.82;2.40;;;10.20;99.90;;;;;;5034852;28;20033;-64
2023/10/02 03:39:52;;;;;;;3.65;2.33;;;10.10;99.90;;;;;;5035165;28;20072;-64
2023/10/02 03:42:22;;;;;;;3.35;2.10;;;10.00;99.90;;;;;;5034685;28;20052;-62
2023/10/02 03:44:54;;;;;;;6.50;2.17;;;10.00;99.90;;;;;;5033343;28;20056;-62
2023/10/02 03:47:21;;;;;;;;;;;9.90;99.90;;;;;;5027805;28;20118;-62
2023/10/02 03:49:49;;;;;;;4.32;2.03;;;9.90;99.90;;;;;;5034478;28;20282;-61
2023/10/02 03:52:19;;;;;;;4.10;1.83;;;9.90;99.90;;;;;;5032297;28;20041;-60
2023/10/02 03:54:46;;;;;;;3.97;2.33;;;9.80;99.90;;;;;;5031579;28;20049;-64
2023/10/02 04:03:05;;;;;;;3.50;2.35;;;9.70;99.90;;;;;;5034464;28;20161;-61
2023/10/02 04:05:34;;;;;;;5.22;1.88;;;9.60;99.90;;;;;;5031646;28;20090;-60
2023/10/02 04:10:55;;;;;;;5.25;2.03;;;9.50;99.90;;;;;;5035165;28;20478;-63
2023/10/02 04:13:34;;;;;;;3.42;2.00;;;9.50;99.90;;;;;;5031429;28;20115;-60
2023/10/02 04:18:49;;;;;;;5.05;2.42;;;9.40;99.90;;;;;;5030686;28;20048;-64
2023/10/02 04:21:25;;;;;;;3.88;1.90;;;9.40;99.90;;;;;;5034137;28;20051;-62
2023/10/02 04:23:57;;;;;;;3.00;2.28;;;9.30;99.90;;;;;;5034976;28;20487;-62
2023/10/02 04:26:28;;;;;;;3.78;1.88;;;9.30;99.90;;;;;;5034006;28;20510;-64
2023/10/02 04:29:14;;;;;;;4.85;1.85;;;9.30;99.90;;;;;;5033117;28;20124;-64
2023/10/02 04:32:04;;;;;;;5.68;2.17;;;9.30;99.90;;;;;;5033823;28;20145;-64
2023/10/02 04:34:36;;;;;;;2.47;1.73;;;9.30;99.90;;;;;;5034197;28;20046;-64
2023/10/02 04:37:19;;;;;;;7.15;2.25;;;9.30;99.90;;;;;;5036430;28;20037;-60
2023/10/02 04:42:57;;;;;;;10.23;3.85;;;9.40;99.90;;;;;;5033209;28;20049;-60
2023/10/02 04:45:26;;;;;;;3.92;2.10;;;9.50;99.90;;;;;;5038656;28;20501;-64
2023/10/02 04:47:58;;;;;;;8.63;2.70;;;9.60;99.90;;;;;;5034527;28;20120;-64
2023/10/02 04:52:56;;;;;;;8.00;2.70;;;9.70;99.90;;;;;;5039546;28;20388;-64
2023/10/02 04:55:31;;;;;;;4.97;2.75;;;9.70;99.90;;;;;;5031985;28;20045;-64
2023/10/02 04:58:13;;;;;;;9.05;3.25;;;9.80;99.90;;;;;;5037187;28;20053;-60
2023/10/02 05:03:33;;;;;;;4.03;2.40;;;9.70;99.90;;;;;;5034320;28;20356;-61
2023/10/02 05:06:00;;;;;;;6.68;2.85;;;9.80;99.90;;;;;;5040672;28;20100;-64
2023/10/02 05:08:34;;;;;;;5.72;3.05;;;9.80;99.90;;;;;;5036248;28;20041;-63
2023/10/02 05:13:45;;;;;;;11.00;2.97;;;9.80;99.90;;;;;;5040657;28;20045;-64
2023/10/02 05:16:12;;;;;;;4.90;2.45;;;9.80;99.90;;;;;;5035887;28;20759;-64
2023/10/02 05:18:51;;;;;;;5.05;3.38;;;9.90;99.90;;;;;;5037451;28;20398;-62
2023/10/02 05:21:19;;;;;;;10.55;4.05;;;9.90;99.90;;;;;;5032572;28;20088;-63
2023/10/02 05:24:00;;;;;;;9.27;3.83;;;10.00;99.90;;;;;;5038392;28;20037;-61
2023/10/02 05:26:36;;;;;;;6.78;3.08;;;10.10;99.90;;;;;;5032800;28;20037;-63
2023/10/02 05:29:06;;;;;;;7.55;3.40;;;10.20;99.90;;;;;;5035494;28;20414;-63
2023/10/02 05:31:40;;;;;;;9.95;3.90;;;10.30;99.90;;;;;;5033283;28;20121;-60
2023/10/02 05:34:21;;;;;;;6.80;2.92;;;10.40;99.90;;;;;;5036555;28;20046;-67
2023/10/02 05:39:39;;;;;;;7.55;4.03;;;10.60;99.90;;;;;;5037234;28;20135;-65
2023/10/02 05:42:13;;;;;;;6.68;3.72;;;10.70;99.90;;;;;;5039743;28;20115;-62
2023/10/02 05:44:42;;;;;;;7.05;3.30;;;10.70;99.90;;;;;;5038140;28;20148;-63
2023/10/02 05:47:11;;;;;;;7.80;4.55;;;10.80;99.90;;;;;;5033756;28;20104;-67
2023/10/02 05:49:48;;;;;;;7.88;3.42;;;10.90;99.90;;;;;;5035241;28;20072;-62
2023/10/02 05:52:18;;;;;;;11.63;4.55;;;11.00;99.90;;;;;;5029855;28;20045;-60
2023/10/02 05:54:55;;;;;;;5.72;3.53;;;11.00;99.90;;;;;;5037796;28;20052;-62
2023/10/02 05:57:22;;;;;;;12.43;5.13;;;11.10;99.90;;;;;;5032177;28;20053;-61
2023/10/02 05:59:54;;;;;;;8.77;3.40;;;11.10;99.90;;;;;;5037039;28;20046;-61
2023/10/02 06:02:23;;;;;;;5.63;2.70;;;11.10;99.90;;;;;;5029771;28;20398;-64
2023/10/02 06:04:54;;;;;;;11.98;4.60;;;11.10;99.90;;;;;;5034256;28;20045;-64
2023/10/02 06:10:26;;;;;;;11.50;4.13;;;11.20;99.90;;;;;;5017776;28;20062;-62
2023/10/02 06:13:07;;;;;;;10.30;4.95;;;11.30;99.90;;;;;;5036599;28;20492;-68
2023/10/02 06:15:46;;;;;;;8.30;3.22;;;11.40;99.90;;;;;;5033985;28;20056;-61
2023/10/02 06:18:27;;;;;;;13.77;4.47;;;11.40;99.90;;;;;;5033524;28;20124;-62
2023/10/02 06:21:01;;;;;;;;;;;11.50;99.90;;;;;;5032821;28;20041;-64
2023/10/02 06:23:37;;;;;;;10.20;3.90;;;11.60;99.90;;;;;;5036268;28;20349;-63
2023/10/02 06:26:11;;;;;;;7.38;3.67;;;11.80;99.90;;;;;;5034403;28;20077;-61
2023/10/02 06:28:39;;;;;;;10.88;3.53;;;11.80;99.90;;;;;;5031585;28;20041;-63
2023/10/02 06:31:06;;;;;;;6.45;2.75;;;11.90;99.90;;;;;;5038398;28;20095;-64
2023/10/02 06:33:37;;;;;;;6.35;3.60;;;12.00;99.90;;;;;;5037127;28;20050;-64
2023/10/02 06:36:06;;;;;;;10.48;3.53;;;12.10;99.90;;;;;;5033376;28;20049;-67
2023/10/02 06:38:33;;;;;;;7.75;2.65;;;12.10;99.90;;;;;;5037935;28;20469;-60
2023/10/02 06:41:07;;;;;;;6.25;3.20;;;12.20;99.90;;;;;;5030931;28;20480;-64
2023/10/02 06:43:35;;;;;;;7.50;3.38;;;12.20;99.90;;;;;;5033187;28;20427;-62
2023/10/02 06:46:13;;;;;;;12.88;4.07;;;12.30;99.90;;;;;;5034534;28;20055;-60
2023/10/02 06:48:46;;;;;;;7.35;3.08;;;12.30;99.90;;;;;;5033194;28;20091;-74
2023/10/02 06:51:13;;;;;;;10.05;4.20;;;12.40;99.90;;;;;;5035302;28;20036;-64
2023/10/02 06:53:41;;;;;;;7.10;2.88;;;12.50;99.90;;;;;;5035692;28;20042;-67
2023/10/02 06:56:12;;;;;;;10.15;4.15;;;12.50;99.90;;;;;;5035722;28;20037;-62
2023/10/02 06:58:54;;;;;;;9.13;2.67;;;12.60;99.90;;;;;;5034480;28;20055;-61
2023/10/02 07:01:27;;;;;;;7.93;3.40;;;12.70;99.90;;;;;;5035198;28;20106;-67
2023/10/02 07:03:56;;;;;;;8.77;3.40;;;12.80;99.90;;;;;;5035474;28;20432;-63
2023/10/02 07:06:24;;;;;;;8.00;2.95;;;12.90;99.90;;;;;;5030147;28;20079;-61
2023/10/02 07:09:10;;;;;;;15.20;3.70;;;12.90;99.90;;;;;;5037896;28;20053;-62
2023/10/02 07:11:40;;;;;;;7.78;3.90;;;13.00;99.90;;;;;;5034630;28;20494;-64
2023/10/02 07:14:07;;;;;;;8.57;3.08;;;13.00;99.90;;;;;;5037140;28;20103;-67
2023/10/02 07:16:34;;;;;;;7.28;3.60;;;13.10;99.90;;;;;;5031778;28;20116;-61
2023/10/02 07:19:01;;;;;;;10.38;3.45;;;13.20;99.90;;;;;;5031497;28;20039;-63
2023/10/02 07:21:30;;;;;;;5.85;3.25;;;13.30;99.90;;;;;;5035033;28;20049;-63
2023/10/02 07:24:02;;;;;;;7.55;3.28;;;13.40;99.90;;;;;;5037092;28;20445;-64
2023/10/02 07:26:49;;;;;;;4.90;2.55;;;13.50;99.90;;;;;;5031139;28;20099;-63
2023/10/02 07:29:17;;;;;;;5.53;3.30;;;13.60;99.90;;;;;;5036788;28;20063;-60
2023/10/02 07:31:45;;;;;;;6.57;4.15;;;13.60;99.90;;;;;;5035303;28;20120;-62
2023/10/02 07:34:15;;;;;;;5.10;3.05;;;13.60;99.90;;;;;;5032946;28;20033;-64
2023/10/02 07:36:46;;;;;;;9.40;3.50;;;13.70;99.90;;;;;;5035163;28;20033;-62
2023/10/02 07:42:04;;;;;;;9.73;3.15;;;13.70;99.90;;;;;;5037711;28;20041;-64
2023/10/02 07:44:37;;;;;;;11.52;6.18;;;13.70;99.90;;;;;;5030797;28;20800;-60
2023/10/02 07:47:21;;;;;;;7.15;3.65;;;13.80;99.90;;;;;;5040784;28;20110;-63
2023/10/02 07:49:52;;;;;;;6.55;3.75;;;13.80;99.90;;;;;;5031562;28;20045;-61
2023/10/02 07:52:42;;;;;;;14.82;3.90;;;13.80;99.90;;;;;;5033808;28;20049;-62
2023/10/02 07:55:10;;;;;;;8.80;2.97;;;13.80;99.90;;;;;;5034115;28;20094;-65
2023/10/02 07:57:38;;;;;;;6.57;3.28;;;13.70;99.90;;;;;;5036149;28;20114;-62
2023/10/02 08:00:33;;;;;;;7.28;3.33;;;13.70;99.90;;;;;;5033792;28;20051;-63
2023/10/02 08:03:02;;;;;;;10.88;3.90;;;13.70;99.90;;;;;;5028616;28;20072;-61
2023/10/02 08:05:35;;;;;;;5.93;3.50;;;13.70;99.90;;;;;;5033153;28;20069;-60
2023/10/02 08:08:09;;;;;;;8.23;5.03;;;13.70;99.90;;;;;;5035573;28;20492;-64
2023/10/02 08:10:49;;;;;;;8.45;4.60;;;13.70;99.90;;;;;;5033264;28;20069;-62
2023/10/02 08:13:17;;;;;;;;;;;13.70;99.90;;;;;;5036542;28;20047;-62
2023/10/02 08:15:47;;;;;;;11.35;4.57;;;13.70;99.90;;;;;;5034617;28;19967;-62
2023/10/02 08:18:19;;;;;;;9.30;5.70;;;13.80;99.90;;;;;;5035191;28;20037;-63
2023/10/02 08:20:48;;;;;;;8.70;5.63;;;13.80;99.90;;;;;;5034829;28;20060;-62
2023/10/02 08:23:22;;;;;;;11.90;4.40;;;13.80;99.90;;;;;;5036914;28;20087;-63
2023/10/02 08:26:06;;;;;;;9.70;5.38;;;13.90;99.90;;;;;;5038522;28;20123;-64
2023/10/02 08:28:36;;;;;;;10.55;4.45;;;13.90;99.90;;;;;;5037018;28;20064;-61
2023/10/02 08:31:03;;;;;;;10.90;4.95;;;14.00;99.90;;;;;;5036919;28;20056;-64
2023/10/02 08:33:30;;;;;;;9.30;3.88;;;14.10;99.90;;;;;;5071042;28;20044;-61
2023/10/02 08:36:19;;;;;;;8.38;3.53;;;14.10;99.90;;;;;;5040486;28;20200;-68
2023/10/02 08:38:49;;;;;;;9.48;4.22;;;14.20;99.90;;;;;;5039737;28;20037;-62
2023/10/02 08:41:43;;;;;;;8.75;4.10;;;14.30;99.90;;;;;;5038724;28;20047;-65
2023/10/02 08:44:12;;;;;;;7.20;4.50;;;14.40;99.90;;;;;;5039447;28;20059;-64
2023/10/02 08:46:46;;;;;;;7.43;3.92;;;14.40;99.90;;;;;;5042904;28;20467;-62
2023/10/02 08:49:16;;;;;;;12.00;5.05;;;14.50;99.90;;;;;;5036821;28;20048;-64
2023/10/02 08:51:49;;;;;;;12.50;4.45;;;14.60;99.90;;;;;;5038145;28;20064;-64
2023/10/02 08:54:27;;;;;;;9.32;5.97;;;14.70;99.90;;;;;;5031092;28;20619;-62
2023/10/02 08:57:06;;;;;;;14.77;5.47;;;15.00;99.90;;;;;;5035961;28;20047;-61
2023/10/02 08:59:40;;;;;;;15.70;6.55;;;15.20;99.90;;;;;;5039638;28;20095;-64
2023/10/02 09:02:16;;;;;;;7.43;5.15;;;15.30;99.90;;;;;;5039674;28;20068;-68
2023/10/02 09:04:53;;;;;;;13.57;6.35;;;15.40;99.90;;;;;;5039430;28;20044;-63
2023/10/02 09:07:44;;;;;;;13.77;6.93;;;15.50;99.90;;;;;;5033966;28;20037;-63
2023/10/02 09:10:28;;;;;;;9.02;6.70;;;15.50;99.90;;;;;;5036967;28;20049;-67
2023/10/02 09:13:17;;;;;;;16.20;6.28;;;15.50;99.90;;;;;;5035804;28;20053;-62
2023/10/02 09:15:47;;;;;;;9.27;5.00;;;15.50;99.90;;;;;;5036699;28;20128;-62
2023/10/02 09:18:33;;;;;;;9.05;5.80;;;15.60;99.90;;;;;;5036462;28;20543;-62
2023/10/02 09:21:13;;;;;;;8.48;5.95;;;15.70;99.90;;;;;;5029555;28;20044;-64
2023/10/02 09:23:49;;;;;;;11.10;5.07;;;15.70;99.90;;;;;;5034663;28;20053;-65
2023/10/02 09:26:23;;;;;;;12.45;6.25;;;15.80;99.90;;;;;;5034648;28;20041;-64
2023/10/02 09:29:00;;;;;;;8.73;6.18;;;15.80;99.90;;;;;;5040424;28;20042;-63
2023/10/02 09:31:30;;;;;;;8.98;5.78;;;15.80;99.90;;;;;;5035194;28;20076;-60
2023/10/02 09:34:10;;;;;;;8.52;3.70;;;15.80;99.90;;;;;;5033671;28;20099;-65
2023/10/02 09:37:11;;;;;;;3.72;2.85;;;15.90;99.90;;;;;;5033766;28;20675;-63
2023/10/02 09:39:58;;;;;;;4.82;3.78;;;15.90;99.90;;;;;;5034757;28;20064;-61
2023/10/02 09:42:30;;;;;;;3.72;2.55;;;15.90;99.90;;;;;;5033898;28;20556;-63
2023/10/02 09:45:08;;;;;;;4.68;2.72;;;15.80;99.90;;;;;;5037470;28;20128;-64
2023/10/02 09:47:35;;;;;;;5.43;2.05;;;15.80;99.90;;;;;;5038808;28;20105;-61
2023/10/02 09:50:26;;;;;;;4.85;2.65;;;15.80;99.90;;;;;;5038794;28;20778;-62
2023/10/02 09:53:02;;;;;;;5.00;2.53;;;15.90;99.90;;;;;;5038205;28;20049;-63
2023/10/02 09:55:41;;;;;;;5.35;2.63;;;15.80;99.90;;;;;;5037277;28;20372;-62
2023/10/02 09:58:26;;;;;;;5.03;4.03;;;15.90;99.90;;;;;;5036611;28;20041;-67
2023/10/02 10:03:56;;;;;;;4.47;3.43;;;15.70;99.90;;;;;;5033730;28;20045;-63
2023/10/02 10:06:48;;;;;;;5.72;4.05;;;15.70;99.90;;;;;;5037423;28;20384;-70
2023/10/02 10:11:42;;;;;;;4.57;4.18;;;15.70;99.90;;;;;;5036152;28;20531;-62
2023/10/02 10:14:37;;;;;;;4.20;3.28;;;15.70;99.90;;;;;;5036465;28;20123;-66
2023/10/02 10:17:49;;;;;;;7.22;4.03;;;15.80;99.90;;;;;;5033612;28;20098;-66
2023/10/02 10:20:22;;;;;;;3.22;2.40;;;15.80;99.90;;;;;;5035472;28;20045;-62
2023/10/02 10:22:56;;;;;;;3.65;3.15;;;15.90;99.90;;;;;;5034278;28;20569;-68
2023/10/02 10:25:23;;;;;;;3.17;2.88;;;16.00;99.90;;;;;;5034540;28;20045;-61
2023/10/02 10:28:09;;;;;;;3.38;2.13;;;16.00;99.90;;;;;;5033820;28;20033;-63
2023/10/02 10:35:49;;;;;;;3.42;2.78;;;16.20;99.90;;;;;;5037452;28;20075;-61
2023/10/02 10:38:25;;;;;;;4.93;2.13;;;16.30;99.90;;;;;;5031767;28;20395;-65
2023/10/02 10:41:00;;;;;;;4.70;2.92;;;16.30;99.90;;;;;;5038577;28;20514;-61
2023/10/02 10:43:55;;;;;;;3.15;2.47;;;16.40;99.90;;;;;;5032213;28;20127;-63
2023/10/02 10:46:27;;;;;;;3.58;2.60;;;16.50;99.90;;;;;;5034706;28;20136;-63
2023/10/02 10:49:07;;;;;;;3.35;2.35;;;16.70;99.90;;;;;;5034418;28;20491;-63
2023/10/02 10:51:36;;;;;;;3.15;2.25;;;16.80;99.90;;;;;;5048586;28;20065;-61
2023/10/02 10:54:14;;;;;;;3.60;2.33;;;16.80;99.90;;;;;;5035982;28;20042;-68
2023/10/02 10:57:19;;;;;;;3.55;2.55;;;16.90;99.90;;;;;;5034384;28;20041;-60
2023/10/02 10:59:46;;;;;;;2.70;2.38;;;17.00;99.90;;;;;;5031886;28;20044;-62
2023/10/02 11:02:15;;;;;;;7.50;3.60;;;17.10;99.90;;;;;;5035920;28;20050;-62
2023/10/02 11:04:47;;;;;;;3.10;2.10;;;17.20;99.90;;;;;;5031030;28;20557;-67
2023/10/02 11:07:22;;;;;;;3.33;2.47;;;17.30;99.90;;;;;;5034459;28;20099;-64
2023/10/02 11:12:55;;;;;;;4.03;2.45;;;17.40;99.90;;;;;;5032007;28;20064;-66
2023/10/02 11:15:46;;;;;;;2.15;1.90;;;17.50;99.90;;;;;;5016515;28;20431;-65
2023/10/02 11:18:23;;;;;;;2.08;1.88;;;17.60;99.90;;;;;;5034678;28;20147;-66
2023/10/02 11:20:54;;;;;;;3.08;1.95;;;17.60;99.90;;;;;;5034369;28;20052;-62
2023/10/02 11:23:37;;;;;;;4.57;2.08;;;17.70;99.90;;;;;;5037799;28;20125;-62
2023/10/02 11:26:15;;;;;;;3.40;2.25;;;17.70;99.90;;;;;;5032112;28;20131;-65
2023/10/02 11:28:49;;;;;;;2.50;2.25;;;17.60;99.90;;;;;;5035661;28;20069;-67
2023/10/02 11:31:45;;;;;;;4.20;2.97;;;17.50;99.90;;;;;;5030055;28;20056;-63
2023/10/02 11:34:12;;;;;;;2.97;2.30;;;17.40;99.90;;;;;;5037159;28;20130;-65
2023/10/02 11:36:52;;;;;;;3.42;2.33;;;17.50;99.90;;;;;;5030023;28;20091;-67
2023/10/02 11:39:20;;;;;;;7.50;2.78;;;17.40;99.90;;;;;;5031299;28;20173;-63
2023/10/02 11:41:47;;;;;;;4.10;2.00;;;17.30;99.90;;;;;;5024943;28;20407;-64
2023/10/02 11:44:14;;;;;;;5.93;2.30;;;17.20;99.90;;;;;;5035944;28;20452;-62
2023/10/02 11:46:43;;;;;;;3.25;1.98;;;17.20;99.90;;;;;;5040145;28;20046;-63
2023/10/02 11:49:13;;;;;;;3.47;3.17;;;17.10;99.90;;;;;;5033385;28;20038;-63
2023/10/02 11:51:40;;;;;;;3.80;2.30;;;17.00;99.90;;;;;;5038266;28;20041;-61
2023/10/02 11:54:09;;;;;;;5.82;3.33;;;16.90;99.90;;;;;;5039193;28;20557;-66
2023/10/02 11:56:38;;;;;;;2.53;2.08;;;16.80;99.90;;;;;;5040148;28;20049;-66
2023/10/02 11:59:07;;;;;;;3.83;2.50;;;16.70;99.90;;;;;;5048734;28;20113;-61
2023/10/02 12:01:35;;;;;;;4.45;2.55;;;16.70;99.90;;;;;;5040927;28;20056;-66
2023/10/02 12:04:04;;;;;;;4.53;2.90;;;16.70;99.90;;;;;;5038081;28;20048;-65
2023/10/02 12:06:32;;;;;;;8.57;2.80;;;16.70;99.90;;;;;;5041291;28;20553;-61
2023/10/02 12:09:00;;;;;;;5.38;2.92;;;16.70;99.90;;;;;;5034893;28;20480;-66
2023/10/02 12:11:30;;;;;;;2.42;2.03;;;16.70;99.90;;;;;;5037164;28;20058;-65
2023/10/02 12:13:57;;;;;;;3.85;1.95;;;16.60;99.90;;;;;;5041880;28;20049;-64
2023/10/02 12:16:24;;;;;;;3.72;2.90;;;16.50;99.90;;;;;;5037507;28;20041;-61
2023/10/02 12:18:52;;;;;;;3.03;2.22;;;16.50;99.90;;;;;;5042753;28;20069;-61
2023/10/02 12:21:21;;;;;;;2.63;2.42;;;16.50;99.90;;;;;;5040832;28;20037;-61
2023/10/02 12:23:48;;;;;;;3.13;2.55;;;16.50;99.90;;;;;;5038157;28;20136;-62
2023/10/02 12:26:17;;;;;;;8.65;4.13;;;16.50;99.90;;;;;;5035817;28;20052;-66
2023/10/02 12:28:44;;;;;;;4.00;2.53;;;16.50;99.90;;;;;;5034663;28;20040;-62
2023/10/02 12:31:14;;;;;;;4.35;2.72;;;16.50;99.90;;;;;;5041520;28;20639;-64
2023/10/02 12:33:45;;;;;;;5.47;3.17;;;16.50;99.90;;;;;;5039845;28;20802;-66
2023/10/02 12:36:17;;;;;;;5.68;3.00;;;16.50;99.90;;;;;;5039400;28;20057;-70
2023/10/02 12:38:45;;;;;;;2.85;2.47;;;16.40;99.90;;;;;;5035708;28;20029;-63
2023/10/02 12:41:20;;;;;;;5.82;2.90;;;16.40;99.90;;;;;;5036538;28;20091;-66
2023/10/02 12:43:59;;;;;;;7.38;3.45;;;16.40;99.90;;;;;;5032032;28;20045;-67
2023/10/02 12:46:28;;;;;;;3.38;2.58;;;16.40;99.90;;;;;;5037772;28;20044;-63
2023/10/02 12:48:57;;;;;;;4.65;4.25;;;16.40;99.90;;;;;;5037795;28;20092;-63
2023/10/02 12:51:25;;;;;;;6.47;3.42;;;16.50;99.90;;;;;;5038747;28;20362;-66
2023/10/02 12:53:52;;;;;;;5.55;3.92;;;16.40;99.90;;;;;;5032747;28;20541;-64
2023/10/02 12:56:21;;;;;;;4.15;3.15;;;16.50;99.90;;;;;;5036357;28;21085;-63
2023/10/02 12:58:50;;;;;;;4.82;4.18;;;16.50;99.90;;;;;;5033772;28;20043;-67
2023/10/02 13:01:19;;;;;;;5.93;3.42;;;16.60;99.90;;;;;;5036858;28;20037;-66
2023/10/02 13:03:46;;;;;;;5.20;3.45;;;16.70;99.90;;;;;;5034407;28;20129;-66
2023/10/02 13:06:13;;;;;;;5.30;3.38;;;16.70;99.90;;;;;;5035659;28;20054;-64
2023/10/02 13:08:44;;;;;;;4.63;3.30;;;16.80;99.90;;;;;;5039588;28;20143;-62
2023/10/02 13:11:18;;;;;;;4.22;3.83;;;16.90;99.90;;;;;;5035659;28;20061;-64
2023/10/02 13:13:48;;;;;;;3.28;2.90;;;16.90;99.90;;;;;;5032834;28;20043;-64
2023/10/02 13:16:16;;;;;;;4.43;4.00;;;16.90;99.90;;;;;;5037265;28;20071;-67
2023/10/02 13:18:46;;;;;;;9.32;3.75;;;16.80;99.90;;;;;;5037464;28;20819;-61
2023/10/02 13:21:18;;;;;;;3.15;2.65;;;16.80;99.90;;;;;;5033840;28;20391;-63
2023/10/02 13:23:45;;;;;;;3.33;2.97;;;16.80;99.90;;;;;;5035133;28;20694;-65
2023/10/02 13:26:16;;;;;;;7.30;4.15;;;16.70;99.90;;;;;;5032934;28;20438;-68
2023/10/02 13:28:54;;;;;;;;;;;16.70;99.90;;;;;;5034977;28;20041;-65
2023/10/02 13:31:22;;;;;;;8.07;2.92;;;16.60;99.90;;;;;;5037061;28;20450;-70
2023/10/02 13:33:53;;;;;;;3.05;2.50;;;16.70;99.90;;;;;;5035400;28;20064;-65
2023/10/02 13:36:24;;;;;;;3.83;2.85;;;16.70;99.90;;;;;;5038761;28;20092;-62
2023/10/02 13:38:58;;;;;;;8.10;4.07;;;16.80;99.90;;;;;;5038186;28;20426;-63
2023/10/02 13:41:26;;;;;;;4.97;2.50;;;16.80;99.90;;;;;;5034655;28;20051;-64
2023/10/02 13:43:58;;;;;;;5.47;3.15;;;16.80;99.90;;;;;;5035434;28;20435;-65
2023/10/02 13:46:25;;;;;;;2.53;2.33;;;16.80;99.90;;;;;;5040742;28;20484;-64
2023/10/02 13:48:53;;;;;;;3.63;2.15;;;16.80;99.90;;;;;;5032784;28;20067;-62
2023/10/02 13:51:21;;;;;;;2.85;2.00;;;16.80;99.90;;;;;;5035996;28;20052;-66
2023/10/02 13:53:49;;;;;;;4.07;2.58;;;16.80;99.90;;;;;;5030381;28;20144;-62
2023/10/02 13:56:20;;;;;;;7.72;2.80;;;16.90;99.90;;;;;;5033136;28;20045;-72
2023/10/02 13:58:50;;;;;;;2.63;2.42;;;16.80;99.90;;;;;;5036268;28;20069;-62
2023/10/02 14:01:19;;;;;;;2.95;1.63;;;16.80;99.90;;;;;;5035548;28;20051;-66
2023/10/02 14:03:51;;;;;;;5.03;2.27;;;16.80;99.90;;;;;;5029026;28;20092;-60
2023/10/02 14:06:21;;;;;;;2.60;1.95;;;16.80;99.90;;;;;;5034874;28;20612;-63
2023/10/02 14:08:49;;;;;;;4.32;2.33;;;16.80;99.90;;;;;;5036929;28;20044;-65
2023/10/02 14:11:17;;;;;;;2.83;2.15;;;16.80;99.90;;;;;;5035914;28;20051;-66
2023/10/02 14:13:48;;;;;;;2.42;1.88;;;16.80;99.90;;;;;;5039543;28;20049;-64
2023/10/02 14:16:20;;;;;;;2.53;1.75;;;16.80;99.90;;;;;;5029889;28;20046;-63